sensor_id;sensor_type;location;lat;lon;timestamp;pressure;altitude;pressure_sealevel;temperature;humidity
57250;BME280;43102;52.014;-0.680;2022-12-07T00:00:00;101501;;;3.53;81.61
57250;BME280;43102;52.014;-0.680;2022-12-07T00:01:07;101501;;;3.53;81.61
57250;BME280;43102;52.014;-0.680;2022-12-07T00:02:00;101501;;;3.53;81.61
57250;BME280;43102;52.014;-0.680;2022-12-07T00:03:00;101501;;;3.53;81.61
57250;BME280;43102;52.014;-0.680;2022-12-07T00:04:00;101506;;;3.50;81.58
57250;BME280;43102;52.014;-0.680;2022-12-07T00:05:00;101506;;;3.50;81.58
57250;BME280;43102;52.014;-0.680;2022-12-07T00:06:00;101506;;;3.50;81.58
57250;BME280;43102;52.014;-0.680;2022-12-07T00:07:00;101506;;;3.50;81.58
57250;BME280;43102;52.014;-0.680;2022-12-07T00:08:00;101506;;;3.50;81.58
57250;BME280;43102;52.014;-0.680;2022-12-07T00:09:00;101501;;;3.47;81.51
57250;BME280;43102;52.014;-0.680;2022-12-07T00:10:00;101501;;;3.47;81.51
57250;BME280;43102;52.014;-0.680;2022-12-07T00:11:00;101501;;;3.47;81.51
57250;BME280;43102;52.014;-0.680;2022-12-07T00:12:00;101501;;;3.47;81.51
57250;BME280;43102;52.014;-0.680;2022-12-07T00:13:00;101501;;;3.47;81.51
57250;BME280;43102;52.014;-0.680;2022-12-07T00:14:01;101497;;;3.43;81.62
57250;BME280;43102;52.014;-0.680;2022-12-07T00:15:00;101497;;;3.43;81.62
57250;BME280;43102;52.014;-0.680;2022-12-07T00:16:01;101497;;;3.43;81.62
57250;BME280;43102;52.014;-0.680;2022-12-07T00:17:00;101497;;;3.43;81.62
57250;BME280;43102;52.014;-0.680;2022-12-07T00:18:00;101497;;;3.43;81.62
57250;BME280;43102;52.014;-0.680;2022-12-07T00:19:00;101495;;;3.37;81.81
57250;BME280;43102;52.014;-0.680;2022-12-07T00:20:00;101495;;;3.37;81.81
57250;BME280;43102;52.014;-0.680;2022-12-07T00:21:03;101495;;;3.37;81.81
57250;BME280;43102;52.014;-0.680;2022-12-07T00:22:00;101495;;;3.37;81.81
57250;BME280;43102;52.014;-0.680;2022-12-07T00:23:00;101495;;;3.37;81.81
57250;BME280;43102;52.014;-0.680;2022-12-07T00:24:00;101502;;;3.37;81.98
57250;BME280;43102;52.014;-0.680;2022-12-07T00:25:00;101502;;;3.37;81.98
57250;BME280;43102;52.014;-0.680;2022-12-07T00:26:08;101502;;;3.37;81.98
57250;BME280;43102;52.014;-0.680;2022-12-07T00:27:00;101502;;;3.37;81.98
57250;BME280;43102;52.014;-0.680;2022-12-07T00:28:00;101502;;;3.37;81.98
57250;BME280;43102;52.014;-0.680;2022-12-07T00:29:02;101497;;;3.33;81.99
57250;BME280;43102;52.014;-0.680;2022-12-07T00:30:00;101497;;;3.33;81.99
57250;BME280;43102;52.014;-0.680;2022-12-07T00:31:01;101497;;;3.33;81.99
57250;BME280;43102;52.014;-0.680;2022-12-07T00:32:00;101497;;;3.33;81.99
57250;BME280;43102;52.014;-0.680;2022-12-07T00:33:00;101497;;;3.33;81.99
57250;BME280;43102;52.014;-0.680;2022-12-07T00:34:00;101501;;;3.27;81.96
57250;BME280;43102;52.014;-0.680;2022-12-07T00:35:00;101501;;;3.27;81.96
57250;BME280;43102;52.014;-0.680;2022-12-07T00:36:00;101501;;;3.27;81.96
57250;BME280;43102;52.014;-0.680;2022-12-07T00:37:00;101501;;;3.27;81.96
57250;BME280;43102;52.014;-0.680;2022-12-07T00:38:00;101501;;;3.27;81.96
57250;BME280;43102;52.014;-0.680;2022-12-07T00:39:00;101491;;;3.23;81.92
57250;BME280;43102;52.014;-0.680;2022-12-07T00:40:00;101491;;;3.23;81.92
57250;BME280;43102;52.014;-0.680;2022-12-07T00:41:01;101491;;;3.23;81.92
57250;BME280;43102;52.014;-0.680;2022-12-07T00:42:00;101491;;;3.23;81.92
57250;BME280;43102;52.014;-0.680;2022-12-07T00:43:00;101491;;;3.23;81.92
57250;BME280;43102;52.014;-0.680;2022-12-07T00:44:00;101487;;;3.19;81.76
57250;BME280;43102;52.014;-0.680;2022-12-07T00:45:00;101487;;;3.19;81.76
57250;BME280;43102;52.014;-0.680;2022-12-07T00:46:00;101487;;;3.19;81.76
57250;BME280;43102;52.014;-0.680;2022-12-07T00:47:00;101487;;;3.19;81.76
57250;BME280;43102;52.014;-0.680;2022-12-07T00:48:00;101487;;;3.19;81.76
57250;BME280;43102;52.014;-0.680;2022-12-07T00:49:00;101485;;;2.71;83.50
57250;BME280;43102;52.014;-0.680;2022-12-07T00:50:00;101485;;;2.71;83.50
57250;BME280;43102;52.014;-0.680;2022-12-07T00:51:00;101485;;;2.71;83.50
57250;BME280;43102;52.014;-0.680;2022-12-07T00:52:00;101485;;;2.71;83.50
57250;BME280;43102;52.014;-0.680;2022-12-07T00:53:00;101485;;;2.71;83.50
57250;BME280;43102;52.014;-0.680;2022-12-07T00:54:00;101489;;;3.11;81.98
57250;BME280;43102;52.014;-0.680;2022-12-07T00:55:00;101489;;;3.11;81.98
57250;BME280;43102;52.014;-0.680;2022-12-07T00:56:08;101489;;;3.11;81.98
57250;BME280;43102;52.014;-0.680;2022-12-07T00:57:00;101489;;;3.11;81.98
57250;BME280;43102;52.014;-0.680;2022-12-07T00:58:00;101489;;;3.11;81.98
57250;BME280;43102;52.014;-0.680;2022-12-07T00:59:00;101488;;;3.08;81.80
57250;BME280;43102;52.014;-0.680;2022-12-07T01:00:00;101488;;;3.08;81.80
57250;BME280;43102;52.014;-0.680;2022-12-07T01:01:01;101488;;;3.08;81.80
57250;BME280;43102;52.014;-0.680;2022-12-07T01:02:00;101488;;;3.08;81.80
57250;BME280;43102;52.014;-0.680;2022-12-07T01:03:00;101488;;;3.08;81.80
57250;BME280;43102;52.014;-0.680;2022-12-07T01:04:00;101492;;;3.04;81.89
57250;BME280;43102;52.014;-0.680;2022-12-07T01:05:00;101492;;;3.04;81.89
57250;BME280;43102;52.014;-0.680;2022-12-07T01:06:00;101492;;;3.04;81.89
57250;BME280;43102;52.014;-0.680;2022-12-07T01:07:00;101492;;;3.04;81.89
57250;BME280;43102;52.014;-0.680;2022-12-07T01:08:00;101492;;;3.04;81.89
57250;BME280;43102;52.014;-0.680;2022-12-07T01:09:00;101481;;;2.98;81.80
57250;BME280;43102;52.014;-0.680;2022-12-07T01:10:00;101481;;;2.98;81.80
57250;BME280;43102;52.014;-0.680;2022-12-07T01:11:02;101481;;;2.98;81.80
57250;BME280;43102;52.014;-0.680;2022-12-07T01:12:00;101481;;;2.98;81.80
57250;BME280;43102;52.014;-0.680;2022-12-07T01:13:00;101481;;;2.98;81.80
57250;BME280;43102;52.014;-0.680;2022-12-07T01:14:00;101479;;;2.94;81.79
57250;BME280;43102;52.014;-0.680;2022-12-07T01:15:00;101479;;;2.94;81.79
57250;BME280;43102;52.014;-0.680;2022-12-07T01:16:01;101479;;;2.94;81.79
57250;BME280;43102;52.014;-0.680;2022-12-07T01:17:00;101479;;;2.94;81.79
57250;BME280;43102;52.014;-0.680;2022-12-07T01:18:00;101479;;;2.94;81.79
57250;BME280;43102;52.014;-0.680;2022-12-07T01:19:00;101477;;;2.88;81.75
57250;BME280;43102;52.014;-0.680;2022-12-07T01:20:00;101477;;;2.88;81.75
57250;BME280;43102;52.014;-0.680;2022-12-07T01:21:02;101477;;;2.88;81.75
57250;BME280;43102;52.014;-0.680;2022-12-07T01:22:00;101477;;;2.88;81.75
57250;BME280;43102;52.014;-0.680;2022-12-07T01:23:00;101477;;;2.88;81.75
57250;BME280;43102;52.014;-0.680;2022-12-07T01:24:00;101472;;;2.82;81.75
57250;BME280;43102;52.014;-0.680;2022-12-07T01:25:00;101472;;;2.82;81.75
57250;BME280;43102;52.014;-0.680;2022-12-07T01:26:01;101472;;;2.82;81.75
57250;BME280;43102;52.014;-0.680;2022-12-07T01:27:00;101472;;;2.82;81.75
57250;BME280;43102;52.014;-0.680;2022-12-07T01:28:00;101472;;;2.82;81.75
57250;BME280;43102;52.014;-0.680;2022-12-07T01:29:00;101479;;;2.78;81.71
57250;BME280;43102;52.014;-0.680;2022-12-07T01:30:00;101479;;;2.78;81.71
57250;BME280;43102;52.014;-0.680;2022-12-07T01:31:01;101479;;;2.78;81.71
57250;BME280;43102;52.014;-0.680;2022-12-07T01:32:00;101479;;;2.78;81.71
57250;BME280;43102;52.014;-0.680;2022-12-07T01:33:00;101479;;;2.78;81.71
57250;BME280;43102;52.014;-0.680;2022-12-07T01:34:00;101483;;;2.75;81.66
57250;BME280;43102;52.014;-0.680;2022-12-07T01:35:00;101483;;;2.75;81.66
57250;BME280;43102;52.014;-0.680;2022-12-07T01:36:00;101483;;;2.75;81.66
57250;BME280;43102;52.014;-0.680;2022-12-07T01:37:00;101483;;;2.75;81.66
57250;BME280;43102;52.014;-0.680;2022-12-07T01:38:00;101483;;;2.75;81.66
57250;BME280;43102;52.014;-0.680;2022-12-07T01:39:00;101473;;;2.71;81.72
57250;BME280;43102;52.014;-0.680;2022-12-07T01:40:00;101473;;;2.71;81.72
57250;BME280;43102;52.014;-0.680;2022-12-07T01:41:00;101473;;;2.71;81.72
57250;BME280;43102;52.014;-0.680;2022-12-07T01:42:00;101473;;;2.71;81.72
57250;BME280;43102;52.014;-0.680;2022-12-07T01:43:00;101473;;;2.71;81.72
57250;BME280;43102;52.014;-0.680;2022-12-07T01:46:00;101474;;;2.66;81.54
57250;BME280;43102;52.014;-0.680;2022-12-07T01:47:02;101474;;;2.66;81.54
57250;BME280;43102;52.014;-0.680;2022-12-07T01:48:00;101474;;;2.66;81.54
57250;BME280;43102;52.014;-0.680;2022-12-07T01:49:00;101478;;;2.64;81.66
57250;BME280;43102;52.014;-0.680;2022-12-07T01:50:00;101478;;;2.64;81.66
57250;BME280;43102;52.014;-0.680;2022-12-07T01:51:01;101478;;;2.64;81.66
57250;BME280;43102;52.014;-0.680;2022-12-07T01:52:06;101478;;;2.64;81.66
57250;BME280;43102;52.014;-0.680;2022-12-07T01:53:00;101478;;;2.64;81.66
57250;BME280;43102;52.014;-0.680;2022-12-07T01:54:00;101477;;;2.61;81.66
57250;BME280;43102;52.014;-0.680;2022-12-07T01:55:02;101477;;;2.61;81.66
57250;BME280;43102;52.014;-0.680;2022-12-07T01:56:00;101477;;;2.61;81.66
57250;BME280;43102;52.014;-0.680;2022-12-07T01:57:00;101477;;;2.61;81.66
57250;BME280;43102;52.014;-0.680;2022-12-07T01:58:00;101477;;;2.61;81.66
57250;BME280;43102;52.014;-0.680;2022-12-07T01:59:00;101475;;;2.59;81.75
57250;BME280;43102;52.014;-0.680;2022-12-07T02:00:00;101475;;;2.59;81.75
57250;BME280;43102;52.014;-0.680;2022-12-07T02:01:00;101475;;;2.59;81.75
57250;BME280;43102;52.014;-0.680;2022-12-07T02:02:00;101475;;;2.59;81.75
57250;BME280;43102;52.014;-0.680;2022-12-07T02:03:04;101475;;;2.59;81.75
57250;BME280;43102;52.014;-0.680;2022-12-07T02:04:00;101475;;;2.51;81.64
57250;BME280;43102;52.014;-0.680;2022-12-07T02:05:01;101475;;;2.51;81.64
57250;BME280;43102;52.014;-0.680;2022-12-07T02:06:00;101475;;;2.51;81.64
57250;BME280;43102;52.014;-0.680;2022-12-07T02:07:00;101475;;;2.51;81.64
57250;BME280;43102;52.014;-0.680;2022-12-07T02:08:00;101475;;;2.51;81.64
57250;BME280;43102;52.014;-0.680;2022-12-07T02:09:00;101474;;;2.48;81.71
57250;BME280;43102;52.014;-0.680;2022-12-07T02:11:00;101474;;;2.48;81.71
57250;BME280;43102;52.014;-0.680;2022-12-07T02:12:00;101474;;;2.48;81.71
57250;BME280;43102;52.014;-0.680;2022-12-07T02:13:02;101474;;;2.48;81.71
57250;BME280;43102;52.014;-0.680;2022-12-07T02:14:00;101480;;;2.44;81.87
57250;BME280;43102;52.014;-0.680;2022-12-07T02:15:00;101480;;;2.44;81.87
57250;BME280;43102;52.014;-0.680;2022-12-07T02:18:01;101480;;;2.44;81.87
57250;BME280;43102;52.014;-0.680;2022-12-07T02:20:03;101472;;;2.41;81.69
57250;BME280;43102;52.014;-0.680;2022-12-07T02:21:04;101472;;;2.41;81.69
57250;BME280;43102;52.014;-0.680;2022-12-07T02:22:06;101472;;;2.41;81.69
57250;BME280;43102;52.014;-0.680;2022-12-07T02:23:03;101472;;;2.41;81.69
57250;BME280;43102;52.014;-0.680;2022-12-07T02:27:04;101474;;;2.40;81.79
57250;BME280;43102;52.014;-0.680;2022-12-07T02:30:05;101474;;;2.38;81.72
57250;BME280;43102;52.014;-0.680;2022-12-07T02:31:02;101474;;;2.38;81.72
57250;BME280;43102;52.014;-0.680;2022-12-07T02:32:04;101474;;;2.38;81.72
57250;BME280;43102;52.014;-0.680;2022-12-07T02:34:03;101472;;;2.37;81.80
57250;BME280;43102;52.014;-0.680;2022-12-07T02:37:01;101472;;;2.37;81.80
57250;BME280;43102;52.014;-0.680;2022-12-07T02:39:01;101467;;;2.32;81.75
57250;BME280;43102;52.014;-0.680;2022-12-07T02:40:04;101467;;;2.32;81.75
57250;BME280;43102;52.014;-0.680;2022-12-07T02:41:01;101467;;;2.32;81.75
57250;BME280;43102;52.014;-0.680;2022-12-07T02:42:02;101467;;;2.32;81.75
57250;BME280;43102;52.014;-0.680;2022-12-07T02:43:02;101467;;;2.32;81.75
57250;BME280;43102;52.014;-0.680;2022-12-07T02:44:02;101466;;;2.30;81.83
57250;BME280;43102;52.014;-0.680;2022-12-07T02:45:00;101466;;;2.30;81.83
57250;BME280;43102;52.014;-0.680;2022-12-07T02:46:01;101466;;;2.30;81.83
57250;BME280;43102;52.014;-0.680;2022-12-07T02:47:01;101466;;;2.30;81.83
57250;BME280;43102;52.014;-0.680;2022-12-07T02:48:00;101466;;;2.30;81.83
57250;BME280;43102;52.014;-0.680;2022-12-07T02:49:00;101468;;;1.69;83.94
57250;BME280;43102;52.014;-0.680;2022-12-07T02:50:02;101468;;;1.69;83.94
57250;BME280;43102;52.014;-0.680;2022-12-07T02:51:00;101468;;;1.69;83.94
57250;BME280;43102;52.014;-0.680;2022-12-07T02:52:00;101468;;;1.69;83.94
57250;BME280;43102;52.014;-0.680;2022-12-07T02:53:00;101468;;;1.69;83.94
57250;BME280;43102;52.014;-0.680;2022-12-07T02:54:00;101457;;;1.51;84.83
57250;BME280;43102;52.014;-0.680;2022-12-07T02:55:00;101457;;;1.51;84.83
57250;BME280;43102;52.014;-0.680;2022-12-07T02:56:07;101457;;;1.51;84.83
57250;BME280;43102;52.014;-0.680;2022-12-07T02:57:11;101457;;;1.51;84.83
57250;BME280;43102;52.014;-0.680;2022-12-07T02:58:12;101457;;;1.51;84.83
57250;BME280;43102;52.014;-0.680;2022-12-07T02:59:11;101457;;;1.42;84.86
57250;BME280;43102;52.014;-0.680;2022-12-07T03:00:01;101457;;;1.42;84.86
57250;BME280;43102;52.014;-0.680;2022-12-07T03:03:00;101457;;;1.42;84.86
57250;BME280;43102;52.014;-0.680;2022-12-07T03:04:09;101448;;;1.25;84.73
57250;BME280;43102;52.014;-0.680;2022-12-07T03:07:01;101448;;;1.25;84.73
57250;BME280;43102;52.014;-0.680;2022-12-07T03:08:35;101448;;;1.25;84.73
57250;BME280;43102;52.014;-0.680;2022-12-07T03:10:03;101452;;;1.27;85.05
57250;BME280;43102;52.014;-0.680;2022-12-07T03:11:03;101452;;;1.27;85.05
57250;BME280;43102;52.014;-0.680;2022-12-07T03:12:05;101452;;;1.27;85.05
57250;BME280;43102;52.014;-0.680;2022-12-07T03:14:03;101450;;;1.20;85.12
57250;BME280;43102;52.014;-0.680;2022-12-07T03:15:02;101450;;;1.20;85.12
57250;BME280;43102;52.014;-0.680;2022-12-07T03:17:05;101450;;;1.20;85.12
57250;BME280;43102;52.014;-0.680;2022-12-07T03:18:00;101450;;;1.20;85.12
57250;BME280;43102;52.014;-0.680;2022-12-07T03:19:01;101446;;;1.22;85.25
57250;BME280;43102;52.014;-0.680;2022-12-07T03:20:00;101446;;;1.22;85.25
57250;BME280;43102;52.014;-0.680;2022-12-07T03:21:01;101446;;;1.22;85.25
57250;BME280;43102;52.014;-0.680;2022-12-07T03:22:00;101446;;;1.22;85.25
57250;BME280;43102;52.014;-0.680;2022-12-07T03:23:00;101446;;;1.22;85.25
57250;BME280;43102;52.014;-0.680;2022-12-07T03:24:00;101444;;;1.22;85.47
57250;BME280;43102;52.014;-0.680;2022-12-07T03:25:01;101444;;;1.22;85.47
57250;BME280;43102;52.014;-0.680;2022-12-07T03:26:00;101444;;;1.22;85.47
57250;BME280;43102;52.014;-0.680;2022-12-07T03:27:03;101444;;;1.22;85.47
57250;BME280;43102;52.014;-0.680;2022-12-07T03:28:02;101444;;;1.22;85.47
57250;BME280;43102;52.014;-0.680;2022-12-07T03:29:01;101441;;;1.20;85.54
57250;BME280;43102;52.014;-0.680;2022-12-07T03:30:02;101441;;;1.20;85.54
57250;BME280;43102;52.014;-0.680;2022-12-07T03:31:04;101441;;;1.20;85.54
57250;BME280;43102;52.014;-0.680;2022-12-07T03:32:03;101441;;;1.20;85.54
57250;BME280;43102;52.014;-0.680;2022-12-07T03:33:01;101441;;;1.20;85.54
57250;BME280;43102;52.014;-0.680;2022-12-07T03:34:06;101437;;;1.23;85.74
57250;BME280;43102;52.014;-0.680;2022-12-07T03:35:04;101437;;;1.23;85.74
57250;BME280;43102;52.014;-0.680;2022-12-07T03:36:01;101437;;;1.23;85.74
57250;BME280;43102;52.014;-0.680;2022-12-07T03:37:01;101437;;;1.23;85.74
57250;BME280;43102;52.014;-0.680;2022-12-07T03:38:00;101437;;;1.23;85.74
57250;BME280;43102;52.014;-0.680;2022-12-07T03:39:06;101439;;;1.24;85.90
57250;BME280;43102;52.014;-0.680;2022-12-07T03:40:04;101439;;;1.24;85.90
57250;BME280;43102;52.014;-0.680;2022-12-07T03:41:00;101439;;;1.24;85.90
57250;BME280;43102;52.014;-0.680;2022-12-07T03:42:00;101439;;;1.24;85.90
57250;BME280;43102;52.014;-0.680;2022-12-07T03:43:00;101439;;;1.24;85.90
57250;BME280;43102;52.014;-0.680;2022-12-07T03:44:00;101430;;;1.21;85.92
57250;BME280;43102;52.014;-0.680;2022-12-07T03:45:00;101430;;;1.21;85.92
57250;BME280;43102;52.014;-0.680;2022-12-07T03:47:02;101430;;;1.21;85.92
57250;BME280;43102;52.014;-0.680;2022-12-07T03:48:03;101430;;;1.21;85.92
57250;BME280;43102;52.014;-0.680;2022-12-07T03:52:07;101432;;;1.22;86.01
57250;BME280;43102;52.014;-0.680;2022-12-07T03:53:02;101432;;;1.22;86.01
57250;BME280;43102;52.014;-0.680;2022-12-07T03:54:02;101432;;;1.18;86.05
57250;BME280;43102;52.014;-0.680;2022-12-07T03:55:02;101432;;;1.18;86.05
57250;BME280;43102;52.014;-0.680;2022-12-07T03:56:00;101432;;;1.18;86.05
57250;BME280;43102;52.014;-0.680;2022-12-07T03:57:00;101432;;;1.18;86.05
57250;BME280;43102;52.014;-0.680;2022-12-07T03:58:02;101432;;;1.18;86.05
57250;BME280;43102;52.014;-0.680;2022-12-07T03:59:00;101434;;;1.14;85.83
57250;BME280;43102;52.014;-0.680;2022-12-07T04:00:00;101434;;;1.14;85.83
57250;BME280;43102;52.014;-0.680;2022-12-07T04:01:00;101434;;;1.14;85.83
57250;BME280;43102;52.014;-0.680;2022-12-07T04:02:02;101434;;;1.14;85.83
57250;BME280;43102;52.014;-0.680;2022-12-07T04:03:00;101434;;;1.14;85.83
57250;BME280;43102;52.014;-0.680;2022-12-07T04:04:00;101421;;;1.08;85.63
57250;BME280;43102;52.014;-0.680;2022-12-07T04:05:00;101421;;;1.08;85.63
57250;BME280;43102;52.014;-0.680;2022-12-07T04:06:00;101421;;;1.08;85.63
57250;BME280;43102;52.014;-0.680;2022-12-07T04:07:00;101421;;;1.08;85.63
57250;BME280;43102;52.014;-0.680;2022-12-07T04:08:00;101421;;;1.08;85.63
57250;BME280;43102;52.014;-0.680;2022-12-07T04:09:00;101429;;;0.99;85.64
57250;BME280;43102;52.014;-0.680;2022-12-07T04:10:00;101429;;;0.99;85.64
57250;BME280;43102;52.014;-0.680;2022-12-07T04:11:00;101429;;;0.99;85.64
57250;BME280;43102;52.014;-0.680;2022-12-07T04:12:00;101429;;;0.99;85.64
57250;BME280;43102;52.014;-0.680;2022-12-07T04:13:00;101429;;;0.99;85.64
57250;BME280;43102;52.014;-0.680;2022-12-07T04:14:01;101436;;;0.95;85.62
57250;BME280;43102;52.014;-0.680;2022-12-07T04:15:00;101436;;;0.95;85.62
57250;BME280;43102;52.014;-0.680;2022-12-07T04:16:00;101436;;;0.95;85.62
57250;BME280;43102;52.014;-0.680;2022-12-07T04:17:00;101436;;;0.95;85.62
57250;BME280;43102;52.014;-0.680;2022-12-07T04:18:00;101436;;;0.95;85.62
57250;BME280;43102;52.014;-0.680;2022-12-07T04:19:00;101436;;;0.92;85.59
57250;BME280;43102;52.014;-0.680;2022-12-07T04:20:00;101436;;;0.92;85.59
57250;BME280;43102;52.014;-0.680;2022-12-07T04:21:00;101436;;;0.92;85.59
57250;BME280;43102;52.014;-0.680;2022-12-07T04:22:00;101436;;;0.92;85.59
57250;BME280;43102;52.014;-0.680;2022-12-07T04:23:00;101436;;;0.92;85.59
57250;BME280;43102;52.014;-0.680;2022-12-07T04:24:00;101439;;;0.91;85.79
57250;BME280;43102;52.014;-0.680;2022-12-07T04:25:00;101439;;;0.91;85.79
57250;BME280;43102;52.014;-0.680;2022-12-07T04:26:00;101439;;;0.91;85.79
57250;BME280;43102;52.014;-0.680;2022-12-07T04:27:00;101439;;;0.91;85.79
57250;BME280;43102;52.014;-0.680;2022-12-07T04:28:00;101439;;;0.91;85.79
57250;BME280;43102;52.014;-0.680;2022-12-07T04:29:00;101440;;;0.91;85.85
57250;BME280;43102;52.014;-0.680;2022-12-07T04:30:00;101440;;;0.91;85.85
57250;BME280;43102;52.014;-0.680;2022-12-07T04:31:00;101440;;;0.91;85.85
57250;BME280;43102;52.014;-0.680;2022-12-07T04:32:00;101440;;;0.91;85.85
57250;BME280;43102;52.014;-0.680;2022-12-07T04:33:00;101440;;;0.91;85.85
57250;BME280;43102;52.014;-0.680;2022-12-07T04:34:00;101435;;;0.89;85.90
57250;BME280;43102;52.014;-0.680;2022-12-07T04:35:00;101435;;;0.89;85.90
57250;BME280;43102;52.014;-0.680;2022-12-07T04:36:00;101435;;;0.89;85.90
57250;BME280;43102;52.014;-0.680;2022-12-07T04:37:00;101435;;;0.89;85.90
57250;BME280;43102;52.014;-0.680;2022-12-07T04:38:00;101435;;;0.89;85.90
57250;BME280;43102;52.014;-0.680;2022-12-07T04:39:00;101434;;;0.86;85.86
57250;BME280;43102;52.014;-0.680;2022-12-07T04:40:00;101434;;;0.86;85.86
57250;BME280;43102;52.014;-0.680;2022-12-07T04:41:04;101434;;;0.86;85.86
57250;BME280;43102;52.014;-0.680;2022-12-07T04:42:00;101434;;;0.86;85.86
57250;BME280;43102;52.014;-0.680;2022-12-07T04:43:00;101434;;;0.86;85.86
57250;BME280;43102;52.014;-0.680;2022-12-07T04:44:01;101432;;;0.82;85.91
57250;BME280;43102;52.014;-0.680;2022-12-07T04:45:00;101432;;;0.82;85.91
57250;BME280;43102;52.014;-0.680;2022-12-07T04:46:00;101432;;;0.82;85.91
57250;BME280;43102;52.014;-0.680;2022-12-07T04:47:00;101432;;;0.82;85.91
57250;BME280;43102;52.014;-0.680;2022-12-07T04:48:00;101432;;;0.82;85.91
57250;BME280;43102;52.014;-0.680;2022-12-07T04:49:00;101432;;;0.79;86.04
57250;BME280;43102;52.014;-0.680;2022-12-07T04:50:00;101432;;;0.79;86.04
57250;BME280;43102;52.014;-0.680;2022-12-07T04:51:00;101432;;;0.79;86.04
57250;BME280;43102;52.014;-0.680;2022-12-07T04:52:00;101432;;;0.79;86.04
57250;BME280;43102;52.014;-0.680;2022-12-07T04:53:00;101432;;;0.79;86.04
57250;BME280;43102;52.014;-0.680;2022-12-07T04:54:00;101435;;;0.75;86.41
57250;BME280;43102;52.014;-0.680;2022-12-07T04:55:00;101435;;;0.75;86.41
57250;BME280;43102;52.014;-0.680;2022-12-07T04:56:00;101435;;;0.75;86.41
57250;BME280;43102;52.014;-0.680;2022-12-07T04:57:00;101435;;;0.75;86.41
57250;BME280;43102;52.014;-0.680;2022-12-07T04:58:00;101435;;;0.75;86.41
57250;BME280;43102;52.014;-0.680;2022-12-07T04:59:00;101427;;;0.76;86.53
57250;BME280;43102;52.014;-0.680;2022-12-07T05:00:00;101427;;;0.76;86.53
57250;BME280;43102;52.014;-0.680;2022-12-07T05:01:00;101427;;;0.76;86.53
57250;BME280;43102;52.014;-0.680;2022-12-07T05:02:00;101427;;;0.76;86.53
57250;BME280;43102;52.014;-0.680;2022-12-07T05:03:00;101427;;;0.76;86.53
57250;BME280;43102;52.014;-0.680;2022-12-07T05:04:00;101422;;;0.79;86.88
57250;BME280;43102;52.014;-0.680;2022-12-07T05:05:00;101422;;;0.79;86.88
57250;BME280;43102;52.014;-0.680;2022-12-07T05:06:00;101422;;;0.79;86.88
57250;BME280;43102;52.014;-0.680;2022-12-07T05:07:00;101422;;;0.79;86.88
57250;BME280;43102;52.014;-0.680;2022-12-07T05:08:00;101422;;;0.79;86.88
57250;BME280;43102;52.014;-0.680;2022-12-07T05:09:01;101420;;;0.80;87.01
57250;BME280;43102;52.014;-0.680;2022-12-07T05:10:00;101420;;;0.80;87.01
57250;BME280;43102;52.014;-0.680;2022-12-07T05:11:00;101420;;;0.80;87.01
57250;BME280;43102;52.014;-0.680;2022-12-07T05:12:00;101420;;;0.80;87.01
57250;BME280;43102;52.014;-0.680;2022-12-07T05:13:00;101420;;;0.80;87.01
57250;BME280;43102;52.014;-0.680;2022-12-07T05:14:00;101412;;;0.81;87.07
57250;BME280;43102;52.014;-0.680;2022-12-07T05:15:00;101412;;;0.81;87.07
57250;BME280;43102;52.014;-0.680;2022-12-07T05:16:00;101412;;;0.81;87.07
57250;BME280;43102;52.014;-0.680;2022-12-07T05:17:00;101412;;;0.81;87.07
57250;BME280;43102;52.014;-0.680;2022-12-07T05:18:00;101412;;;0.81;87.07
57250;BME280;43102;52.014;-0.680;2022-12-07T05:19:00;101419;;;0.78;87.21
57250;BME280;43102;52.014;-0.680;2022-12-07T05:20:00;101419;;;0.78;87.21
57250;BME280;43102;52.014;-0.680;2022-12-07T05:21:00;101419;;;0.78;87.21
57250;BME280;43102;52.014;-0.680;2022-12-07T05:22:00;101419;;;0.78;87.21
57250;BME280;43102;52.014;-0.680;2022-12-07T05:23:00;101419;;;0.78;87.21
57250;BME280;43102;52.014;-0.680;2022-12-07T05:24:00;101412;;;0.78;87.33
57250;BME280;43102;52.014;-0.680;2022-12-07T05:25:00;101412;;;0.78;87.33
57250;BME280;43102;52.014;-0.680;2022-12-07T05:26:00;101412;;;0.78;87.33
57250;BME280;43102;52.014;-0.680;2022-12-07T05:27:00;101412;;;0.78;87.33
57250;BME280;43102;52.014;-0.680;2022-12-07T05:28:00;101412;;;0.78;87.33
57250;BME280;43102;52.014;-0.680;2022-12-07T05:29:00;101417;;;0.80;87.19
57250;BME280;43102;52.014;-0.680;2022-12-07T05:30:00;101417;;;0.80;87.19
57250;BME280;43102;52.014;-0.680;2022-12-07T05:31:00;101417;;;0.80;87.19
57250;BME280;43102;52.014;-0.680;2022-12-07T05:32:00;101417;;;0.80;87.19
57250;BME280;43102;52.014;-0.680;2022-12-07T05:33:00;101417;;;0.80;87.19
57250;BME280;43102;52.014;-0.680;2022-12-07T05:34:00;101413;;;0.77;87.33
57250;BME280;43102;52.014;-0.680;2022-12-07T05:35:00;101413;;;0.77;87.33
57250;BME280;43102;52.014;-0.680;2022-12-07T05:36:00;101413;;;0.77;87.33
57250;BME280;43102;52.014;-0.680;2022-12-07T05:37:00;101413;;;0.77;87.33
57250;BME280;43102;52.014;-0.680;2022-12-07T05:38:00;101413;;;0.77;87.33
57250;BME280;43102;52.014;-0.680;2022-12-07T05:39:00;101416;;;0.75;87.17
57250;BME280;43102;52.014;-0.680;2022-12-07T05:40:00;101416;;;0.75;87.17
57250;BME280;43102;52.014;-0.680;2022-12-07T05:41:01;101416;;;0.75;87.17
57250;BME280;43102;52.014;-0.680;2022-12-07T05:42:00;101416;;;0.75;87.17
57250;BME280;43102;52.014;-0.680;2022-12-07T05:43:00;101416;;;0.75;87.17
57250;BME280;43102;52.014;-0.680;2022-12-07T05:44:00;101410;;;0.73;87.21
57250;BME280;43102;52.014;-0.680;2022-12-07T05:45:00;101410;;;0.73;87.21
57250;BME280;43102;52.014;-0.680;2022-12-07T05:46:00;101410;;;0.73;87.21
57250;BME280;43102;52.014;-0.680;2022-12-07T05:47:00;101410;;;0.73;87.21
57250;BME280;43102;52.014;-0.680;2022-12-07T05:48:00;101410;;;0.73;87.21
57250;BME280;43102;52.014;-0.680;2022-12-07T05:49:00;101407;;;0.72;87.26
57250;BME280;43102;52.014;-0.680;2022-12-07T05:50:00;101407;;;0.72;87.26
57250;BME280;43102;52.014;-0.680;2022-12-07T05:51:00;101407;;;0.72;87.26
57250;BME280;43102;52.014;-0.680;2022-12-07T05:52:00;101407;;;0.72;87.26